createdAt,value
2022-11-16T00:00:22.432Z,7.39
2022-11-16T00:01:26.825Z,7.41
2022-11-16T00:02:28.501Z,7.41
2022-11-16T00:03:31.580Z,7.39
2022-11-16T00:04:33.337Z,7.43
2022-11-16T00:05:35.028Z,7.45
2022-11-16T00:06:36.667Z,7.46
2022-11-16T00:07:38.482Z,7.41
2022-11-16T00:08:43.216Z,7.46
2022-11-16T00:09:44.905Z,7.46
2022-11-16T00:10:46.572Z,7.45
2022-11-16T00:11:54.189Z,7.45
2022-11-16T00:12:55.880Z,7.43
2022-11-16T00:13:57.558Z,7.44
2022-11-16T00:14:59.230Z,7.43
2022-11-16T00:16:00.998Z,7.41
2022-11-16T00:17:03.371Z,7.43
2022-11-16T00:18:05.050Z,7.40
2022-11-16T00:19:07.874Z,7.39
2022-11-16T00:20:10.147Z,7.35
2022-11-16T00:21:11.868Z,7.30
2022-11-16T00:22:13.515Z,7.30
2022-11-16T00:23:15.161Z,7.30
2022-11-16T00:24:18.580Z,7.30
2022-11-16T00:25:20.255Z,7.24
2022-11-16T00:26:24.578Z,7.29
2022-11-16T00:27:26.272Z,7.24
2022-11-16T00:28:28.608Z,7.23
2022-11-16T00:29:30.321Z,7.25
2022-11-16T00:30:31.981Z,7.21
2022-11-16T00:31:33.632Z,7.16
2022-11-16T00:32:35.312Z,7.20
2022-11-16T00:33:37.392Z,7.21
2022-11-16T00:34:39.868Z,7.16
2022-11-16T00:35:41.990Z,7.16
2022-11-16T00:36:44.446Z,7.15
2022-11-16T00:37:46.173Z,7.14
2022-11-16T00:38:47.928Z,7.16
2022-11-16T00:39:49.588Z,7.15
2022-11-16T00:40:51.264Z,7.18
2022-11-16T00:41:52.984Z,7.15
2022-11-16T00:42:54.622Z,7.15
2022-11-16T00:43:56.577Z,7.13
2022-11-16T00:44:58.248Z,7.16
2022-11-16T00:45:59.933Z,7.16
2022-11-16T00:47:01.616Z,7.12
2022-11-16T00:48:03.361Z,7.13
2022-11-16T00:49:05.818Z,7.14
2022-11-16T00:50:07.734Z,7.13
2022-11-16T00:51:09.475Z,7.12
2022-11-16T00:52:11.128Z,7.14
2022-11-16T00:53:14.451Z,7.09
2022-11-16T00:54:16.143Z,7.14
2022-11-16T00:55:17.932Z,7.13
2022-11-16T00:56:19.586Z,7.18
2022-11-16T00:57:21.302Z,7.17
2022-11-16T00:58:23.284Z,7.13
2022-11-16T00:59:24.973Z,7.19
2022-11-16T01:00:26.949Z,7.19
2022-11-16T01:01:29.000Z,7.19
2022-11-16T01:02:30.735Z,7.22
2022-11-16T01:03:33.031Z,7.22
2022-11-16T01:04:34.737Z,7.18
2022-11-16T01:05:36.665Z,7.12
2022-11-16T01:06:38.312Z,7.08
2022-11-16T01:07:41.240Z,7.13
2022-11-16T01:08:44.159Z,7.14
2022-11-16T01:09:45.842Z,7.14
2022-11-16T01:10:47.504Z,7.14
2022-11-16T01:12:07.707Z,7.08
2022-11-16T01:13:10.956Z,7.06
2022-11-16T01:14:12.705Z,7.01
2022-11-16T01:15:14.591Z,7.05
2022-11-16T01:16:18.088Z,7.09
2022-11-16T01:17:19.721Z,7.11
2022-11-16T01:18:21.362Z,7.13
2022-11-16T01:19:23.118Z,7.14
2022-11-16T01:20:27.500Z,7.15
2022-11-16T01:21:29.187Z,7.16
2022-11-16T01:22:30.905Z,7.16
2022-11-16T01:23:32.647Z,7.17
2022-11-16T01:24:34.474Z,7.14
2022-11-16T01:25:36.141Z,7.16
2022-11-16T01:26:37.908Z,7.15
2022-11-16T01:27:40.223Z,7.13
2022-11-16T01:28:42.066Z,7.12
2022-11-16T01:29:43.963Z,7.15
2022-11-16T01:30:48.915Z,7.09
2022-11-16T01:31:50.670Z,7.14
2022-11-16T01:32:52.381Z,7.10
2022-11-16T01:33:54.920Z,7.11
2022-11-16T01:34:56.579Z,7.09
2022-11-16T01:35:58.355Z,7.08
2022-11-16T01:37:00.011Z,7.12
2022-11-16T01:38:01.695Z,7.13
2022-11-16T01:39:05.613Z,7.14
2022-11-16T01:40:08.173Z,7.14
2022-11-16T01:41:14.351Z,7.09
2022-11-16T01:42:21.676Z,7.13
2022-11-16T01:43:25.649Z,7.12
2022-11-16T01:44:33.341Z,7.12
2022-11-16T01:45:39.584Z,7.08
2022-11-16T01:46:42.300Z,7.08
2022-11-16T01:47:44.392Z,7.07
2022-11-16T01:48:47.122Z,7.06
2022-11-16T01:50:09.105Z,7.04
2022-11-16T01:51:11.047Z,7.02
2022-11-16T01:52:17.176Z,7.06
2022-11-16T01:53:19.311Z,7.00
2022-11-16T01:54:21.173Z,7.06
2022-11-16T01:55:23.797Z,7.08
2022-11-16T01:56:26.218Z,6.89
2022-11-16T01:57:41.026Z,7.03
2022-11-16T01:58:43.049Z,7.02
2022-11-16T01:59:48.055Z,7.02
2022-11-16T02:00:49.917Z,7.03
2022-11-16T02:01:51.906Z,7.03
2022-11-16T02:02:53.857Z,7.05
2022-11-16T02:03:55.635Z,7.05
2022-11-16T02:04:58.712Z,7.00
2022-11-16T02:06:15.165Z,7.06
2022-11-16T02:08:03.172Z,7.05
2022-11-16T02:09:41.520Z,6.99
2022-11-16T02:11:21.447Z,6.94
2022-11-16T02:12:57.266Z,6.91
2022-11-16T02:14:16.457Z,6.88
2022-11-16T02:15:42.215Z,6.85
2022-11-16T02:17:01.781Z,6.83
2022-11-16T02:18:18.277Z,6.83
2022-11-16T02:19:53.406Z,6.79
2022-11-16T02:21:19.420Z,6.77
2022-11-16T02:22:27.395Z,6.77
2022-11-16T02:23:31.954Z,6.78
2022-11-16T02:24:39.666Z,6.78
2022-11-16T02:26:06.285Z,6.75
2022-11-16T02:27:10.917Z,6.80
2022-11-16T02:28:44.451Z,6.80
2022-11-16T02:29:50.250Z,6.83
2022-11-16T02:30:55.054Z,6.84
2022-11-16T02:32:06.150Z,6.84
2022-11-16T02:33:12.333Z,6.87
2022-11-16T02:34:18.077Z,6.87
2022-11-16T02:35:22.912Z,6.81
2022-11-16T02:36:25.839Z,6.83
2022-11-16T02:37:31.887Z,6.82
2022-11-16T02:38:38.720Z,6.68
2022-11-16T02:39:43.358Z,6.76
2022-11-16T02:40:50.748Z,6.74
2022-11-16T02:41:54.631Z,6.74
2022-11-16T02:43:11.761Z,6.76
2022-11-16T02:44:19.644Z,6.74
2022-11-16T02:45:26.338Z,6.68
2022-11-16T02:46:36.800Z,6.72
2022-11-16T02:47:41.506Z,6.70
2022-11-16T02:48:48.129Z,6.71
2022-11-16T02:49:56.843Z,6.68
2022-11-16T02:50:58.581Z,6.67
2022-11-16T02:52:01.086Z,6.66
2022-11-16T02:53:03.583Z,6.63
2022-11-16T02:54:12.975Z,6.51
2022-11-16T02:55:14.922Z,6.52
2022-11-16T02:56:16.715Z,6.54
2022-11-16T02:57:26.995Z,6.56
2022-11-16T02:58:29.626Z,6.54
2022-11-16T02:59:36.870Z,6.58
2022-11-16T03:00:52.165Z,6.61
2022-11-16T03:02:08.137Z,6.56
2022-11-16T03:03:35.130Z,6.60
2022-11-16T03:04:43.621Z,6.60
2022-11-16T03:05:51.257Z,6.63
2022-11-16T03:06:56.496Z,6.66
2022-11-16T03:08:19.465Z,6.66
2022-11-16T03:09:27.945Z,6.64
2022-11-16T03:10:49.252Z,6.63
2022-11-16T03:12:00.729Z,6.64
2022-11-16T03:13:03.822Z,6.62
2022-11-16T03:14:15.106Z,6.53
2022-11-16T03:15:17.237Z,6.24
2022-11-16T03:16:50.593Z,6.04
2022-11-16T03:17:52.871Z,5.88
2022-11-16T03:18:56.962Z,5.85
2022-11-16T03:20:07.780Z,5.85
2022-11-16T03:21:28.635Z,5.75
2022-11-16T03:22:39.523Z,5.97
2022-11-16T03:23:41.868Z,5.91
2022-11-16T03:24:43.657Z,6.05
2022-11-16T03:25:50.787Z,6.07
2022-11-16T03:27:05.649Z,6.11
2022-11-16T03:28:20.200Z,6.16
2022-11-16T03:29:30.885Z,6.20
2022-11-16T03:30:41.329Z,6.20
2022-11-16T03:31:50.669Z,6.26
2022-11-16T03:33:08.377Z,6.26
2022-11-16T03:34:16.544Z,6.27
2022-11-16T03:35:23.328Z,6.24
2022-11-16T03:36:40.849Z,6.22
2022-11-16T03:37:46.104Z,6.20
2022-11-16T03:38:50.894Z,6.17
2022-11-16T03:39:53.988Z,6.08
2022-11-16T03:41:03.204Z,6.01
2022-11-16T03:42:10.833Z,5.92
2022-11-16T03:43:14.493Z,5.91
2022-11-16T03:44:18.926Z,5.93
2022-11-16T03:45:21.143Z,5.99
2022-11-16T03:46:22.889Z,6.03
2022-11-16T03:47:24.582Z,6.02
2022-11-16T03:48:32.269Z,5.98
2022-11-16T03:49:34.191Z,5.98
2022-11-16T03:50:35.907Z,6.02
2022-11-16T03:51:37.918Z,5.98
2022-11-16T03:52:39.636Z,6.01
2022-11-16T03:53:41.329Z,6.00
2022-11-16T03:54:43.148Z,6.03
2022-11-16T03:55:49.584Z,6.09
2022-11-16T03:56:51.775Z,6.07
2022-11-16T03:57:53.424Z,6.09
2022-11-16T03:58:55.285Z,6.08
2022-11-16T03:59:57.137Z,6.10
2022-11-16T04:00:58.931Z,6.15
2022-11-16T04:02:00.653Z,6.04
2022-11-16T04:03:02.371Z,6.12
2022-11-16T04:04:04.133Z,6.11
2022-11-16T04:05:24.323Z,6.16
2022-11-16T04:06:44.394Z,6.09
2022-11-16T04:08:06.532Z,6.21
2022-11-16T04:09:30.039Z,6.16
2022-11-16T04:10:49.980Z,6.23
2022-11-16T04:12:09.965Z,6.19
2022-11-16T04:13:33.841Z,6.21
2022-11-16T04:14:54.130Z,6.20
2022-11-16T04:16:14.057Z,6.22
2022-11-16T04:17:36.492Z,6.20
2022-11-16T04:18:57.069Z,6.07
2022-11-16T04:20:17.119Z,6.05
2022-11-16T04:22:09.690Z,6.04
2022-11-16T04:23:33.169Z,6.03
2022-11-16T04:24:38.474Z,6.03
2022-11-16T04:25:41.937Z,6.05
2022-11-16T04:27:06.864Z,5.98
2022-11-16T04:28:14.756Z,6.04
2022-11-16T04:29:16.687Z,6.03
2022-11-16T04:30:18.520Z,5.94
2022-11-16T04:31:38.945Z,5.92
2022-11-16T04:32:59.542Z,5.98
2022-11-16T04:34:20.097Z,5.99
2022-11-16T04:35:33.621Z,5.98
2022-11-16T04:36:54.036Z,5.98
2022-11-16T04:37:58.426Z,5.96
2022-11-16T04:39:00.284Z,5.92
2022-11-16T04:40:02.193Z,5.94
2022-11-16T04:41:03.860Z,5.92
2022-11-16T04:42:14.773Z,5.93
2022-11-16T04:43:16.521Z,5.94
2022-11-16T04:44:18.915Z,5.95
2022-11-16T04:45:40.328Z,5.96
2022-11-16T04:47:00.839Z,5.94
2022-11-16T04:48:02.951Z,5.96
2022-11-16T04:49:04.648Z,5.90
2022-11-16T04:50:06.595Z,5.96
2022-11-16T04:51:08.270Z,5.96
2022-11-16T04:52:10.272Z,6.00
2022-11-16T04:53:12.563Z,6.00
2022-11-16T04:54:14.313Z,6.01
2022-11-16T04:55:15.989Z,6.01
2022-11-16T04:56:17.699Z,6.08
2022-11-16T04:57:19.346Z,6.07
2022-11-16T04:58:21.046Z,6.11
2022-11-16T04:59:22.769Z,6.04
2022-11-16T05:00:24.551Z,6.06
2022-11-16T05:01:44.944Z,6.03
2022-11-16T05:02:46.669Z,6.02
2022-11-16T05:03:48.331Z,6.05
2022-11-16T05:04:50.055Z,6.07
2022-11-16T05:05:51.751Z,6.09
2022-11-16T05:06:53.628Z,6.09
2022-11-16T05:07:55.430Z,6.10
2022-11-16T05:08:57.073Z,6.15
2022-11-16T05:09:58.765Z,6.11
2022-11-16T05:11:00.423Z,6.17
2022-11-16T05:12:02.060Z,6.17
2022-11-16T05:13:03.728Z,6.17
2022-11-16T05:14:06.376Z,6.12
2022-11-16T05:15:09.183Z,6.08
2022-11-16T05:16:10.833Z,6.06
2022-11-16T05:17:13.552Z,6.02
2022-11-16T05:18:15.237Z,6.06
2022-11-16T05:19:35.144Z,6.07
2022-11-16T05:20:55.007Z,6.07
2022-11-16T05:21:56.708Z,6.10
2022-11-16T05:22:58.968Z,6.12
2022-11-16T05:24:18.887Z,6.09
2022-11-16T05:25:20.609Z,6.10
2022-11-16T05:26:22.290Z,6.08
2022-11-16T05:27:25.523Z,6.15
2022-11-16T05:28:27.233Z,6.10
2022-11-16T05:29:29.029Z,6.14
2022-11-16T05:30:30.763Z,6.10
2022-11-16T05:31:36.349Z,6.05
2022-11-16T05:32:41.893Z,6.08
2022-11-16T05:33:43.987Z,6.14
2022-11-16T05:34:46.039Z,6.17
2022-11-16T05:35:51.024Z,6.03
2022-11-16T05:36:53.128Z,6.22
2022-11-16T05:37:54.850Z,6.22
2022-11-16T05:38:56.627Z,6.23
2022-11-16T05:39:58.267Z,6.26
2022-11-16T05:40:59.956Z,6.27
2022-11-16T05:42:02.052Z,6.24
2022-11-16T05:43:03.699Z,6.28
2022-11-16T05:44:05.458Z,6.28
2022-11-16T05:45:07.566Z,6.25
2022-11-16T05:46:09.947Z,6.30
2022-11-16T05:47:11.581Z,6.31
2022-11-16T05:48:13.256Z,6.37
2022-11-16T05:49:16.055Z,6.37
2022-11-16T05:50:17.839Z,6.38
2022-11-16T05:51:19.501Z,6.41
2022-11-16T05:52:21.149Z,6.45
2022-11-16T05:53:22.826Z,6.45
2022-11-16T05:54:26.221Z,6.48
2022-11-16T05:55:27.958Z,6.46
2022-11-16T05:56:30.302Z,6.51
2022-11-16T05:57:32.038Z,6.53
2022-11-16T05:58:33.970Z,6.54
2022-11-16T05:59:36.135Z,6.55
2022-11-16T06:00:37.791Z,6.58
2022-11-16T06:01:39.985Z,6.56
2022-11-16T06:02:41.903Z,6.55
2022-11-16T06:03:43.723Z,6.59
2022-11-16T06:04:45.377Z,6.61
2022-11-16T06:05:47.074Z,6.66
2022-11-16T06:06:48.755Z,6.69
2022-11-16T06:07:50.417Z,6.67
2022-11-16T06:08:52.135Z,6.72
2022-11-16T06:09:53.816Z,6.79
2022-11-16T06:10:55.925Z,6.87
2022-11-16T06:11:57.628Z,6.89
2022-11-16T06:12:59.282Z,6.92
2022-11-16T06:14:00.932Z,6.96
2022-11-16T06:15:02.624Z,6.96
2022-11-16T06:16:05.188Z,7.00
2022-11-16T06:17:06.837Z,7.03
2022-11-16T06:18:09.193Z,7.09
2022-11-16T06:19:10.866Z,7.12
2022-11-16T06:20:12.641Z,7.14
2022-11-16T06:21:16.579Z,7.17
2022-11-16T06:22:18.261Z,7.26
2022-11-16T06:23:20.015Z,7.26
2022-11-16T06:24:21.769Z,7.34
2022-11-16T06:25:23.475Z,7.40
2022-11-16T06:26:25.167Z,7.47
2022-11-16T06:27:26.828Z,7.47
2022-11-16T06:28:28.995Z,7.56
2022-11-16T06:29:30.644Z,7.58
2022-11-16T06:30:32.365Z,7.65
2022-11-16T06:31:34.024Z,7.69
2022-11-16T06:32:35.686Z,7.71
2022-11-16T06:33:37.378Z,7.82
2022-11-16T06:34:39.004Z,7.87
2022-11-16T06:35:41.123Z,7.94
2022-11-16T06:36:42.822Z,7.98
2022-11-16T06:37:44.483Z,8.08
2022-11-16T06:38:46.177Z,8.07
2022-11-16T06:39:47.842Z,8.10
2022-11-16T06:40:54.990Z,8.17
2022-11-16T06:41:56.651Z,8.27
2022-11-16T06:42:58.401Z,8.36
2022-11-16T06:44:00.114Z,8.41
2022-11-16T06:45:01.920Z,8.53
2022-11-16T06:46:03.716Z,8.68
2022-11-16T06:47:05.412Z,8.81
2022-11-16T06:48:07.225Z,9.05
2022-11-16T06:49:08.894Z,9.23
2022-11-16T06:50:10.725Z,9.44
2022-11-16T06:51:12.437Z,9.60
2022-11-16T06:52:14.128Z,9.83
2022-11-16T06:53:15.938Z,10.02
2022-11-16T06:54:17.591Z,10.20
2022-11-16T06:55:19.325Z,10.51
2022-11-16T06:56:21.038Z,10.76
2022-11-16T06:57:22.822Z,11.02
2022-11-16T06:58:24.465Z,11.31
2022-11-16T06:59:26.136Z,11.56
2022-11-16T07:00:28.147Z,11.75
2022-11-16T07:01:29.938Z,12.01
2022-11-16T07:02:31.809Z,12.27
2022-11-16T07:03:33.816Z,12.43
2022-11-16T07:04:35.440Z,12.61
2022-11-16T07:05:40.045Z,12.85
2022-11-16T07:06:41.772Z,13.10
2022-11-16T07:07:43.436Z,13.31
2022-11-16T07:08:45.280Z,13.53
2022-11-16T07:09:46.970Z,13.68
2022-11-16T07:10:48.631Z,13.79
2022-11-16T07:11:50.296Z,14.04
2022-11-16T07:12:51.947Z,14.23
2022-11-16T07:13:53.764Z,14.50
2022-11-16T07:14:55.451Z,14.85
2022-11-16T07:16:10.799Z,15.16
2022-11-16T07:17:12.450Z,15.45
2022-11-16T07:18:14.086Z,15.74
2022-11-16T07:19:15.760Z,16.02
2022-11-16T07:20:18.693Z,16.39
2022-11-16T07:21:20.392Z,16.54
2022-11-16T07:22:22.077Z,16.63
2022-11-16T07:23:23.826Z,16.74
2022-11-16T07:24:25.492Z,16.92
2022-11-16T07:25:27.243Z,17.06
2022-11-16T07:26:31.702Z,17.14
2022-11-16T07:27:33.449Z,17.29
2022-11-16T07:28:35.938Z,17.37
2022-11-16T07:29:37.877Z,17.46
2022-11-16T07:30:39.553Z,17.58
2022-11-16T07:31:41.300Z,17.79
2022-11-16T07:32:43.285Z,18.01
2022-11-16T07:33:44.974Z,18.16
2022-11-16T07:34:46.620Z,18.35
2022-11-16T07:35:48.275Z,18.58
2022-11-16T07:36:49.990Z,18.73
2022-11-16T07:37:51.735Z,18.91
2022-11-16T07:38:53.417Z,19.07
2022-11-16T07:39:55.146Z,19.24
2022-11-16T07:41:01.226Z,19.31
2022-11-16T07:42:02.877Z,19.41
2022-11-16T07:43:04.555Z,19.58
2022-11-16T07:44:10.891Z,19.73
2022-11-16T07:45:14.028Z,19.84
2022-11-16T07:46:45.798Z,19.94
2022-11-16T07:47:43.031Z,20.09
2022-11-16T07:48:45.287Z,20.21
2022-11-16T07:49:48.915Z,20.35
2022-11-16T07:50:50.595Z,20.56
2022-11-16T07:51:52.234Z,20.78
2022-11-16T07:52:55.610Z,20.86
2022-11-16T07:53:57.326Z,20.91
2022-11-16T07:54:59.086Z,21.02
2022-11-16T07:56:01.139Z,21.23
2022-11-16T07:57:02.906Z,21.39
2022-11-16T07:58:04.739Z,21.49
2022-11-16T07:59:06.615Z,21.64
2022-11-16T08:00:09.000Z,21.83
2022-11-16T08:01:15.179Z,21.90
2022-11-16T08:02:17.008Z,21.95
2022-11-16T08:03:24.382Z,22.10
2022-11-16T08:04:26.395Z,22.26
2022-11-16T08:05:28.044Z,22.38
2022-11-16T08:06:31.349Z,22.40
2022-11-16T08:07:34.498Z,22.46
2022-11-16T08:08:36.310Z,22.66
2022-11-16T08:09:39.592Z,22.87
2022-11-16T08:10:41.311Z,22.93
2022-11-16T08:11:43.051Z,22.97
2022-11-16T08:12:44.692Z,23.05
2022-11-16T08:13:46.445Z,23.09
2022-11-16T08:14:48.103Z,23.13
2022-11-16T08:15:49.849Z,23.16
2022-11-16T08:16:51.502Z,23.22
2022-11-16T08:17:53.182Z,23.28
2022-11-16T08:18:54.859Z,23.42
2022-11-16T08:19:56.546Z,23.42
2022-11-16T08:21:02.071Z,23.36
2022-11-16T08:22:03.921Z,23.42
2022-11-16T08:23:05.991Z,23.51
2022-11-16T08:24:08.090Z,23.60
2022-11-16T08:25:10.037Z,23.86
2022-11-16T08:26:17.620Z,24.01
2022-11-16T08:27:19.308Z,24.13
2022-11-16T08:28:20.960Z,24.22
2022-11-16T08:29:22.613Z,24.30
2022-11-16T08:30:24.360Z,24.37
2022-11-16T08:31:28.676Z,24.44
2022-11-16T08:32:31.157Z,24.49
2022-11-16T08:33:32.802Z,24.41
2022-11-16T08:34:34.568Z,24.37
2022-11-16T08:35:36.780Z,24.45
2022-11-16T08:36:38.458Z,24.61
2022-11-16T08:37:40.095Z,24.70
2022-11-16T08:38:41.804Z,24.87
2022-11-16T08:39:43.528Z,25.06
2022-11-16T08:40:45.627Z,25.10
2022-11-16T08:41:47.355Z,25.17
2022-11-16T08:42:49.043Z,25.26
2022-11-16T08:43:50.913Z,25.41
2022-11-16T08:44:52.667Z,25.49
2022-11-16T08:45:54.396Z,25.63
2022-11-16T08:46:56.074Z,25.83
2022-11-16T08:48:03.333Z,25.88
2022-11-16T08:49:05.628Z,25.81
2022-11-16T08:50:07.589Z,25.55
2022-11-16T08:51:20.835Z,25.45
2022-11-16T08:52:22.906Z,25.40
2022-11-16T08:53:25.132Z,25.30
2022-11-16T08:54:29.270Z,25.10
2022-11-16T08:55:30.906Z,25.16
2022-11-16T08:56:33.054Z,25.21
2022-11-16T08:57:34.742Z,25.29
2022-11-16T08:58:36.694Z,25.46
2022-11-16T08:59:38.395Z,25.56
2022-11-16T09:00:40.152Z,25.62
2022-11-16T09:01:41.879Z,25.78
2022-11-16T09:02:43.726Z,25.82
2022-11-16T09:03:46.102Z,25.90
2022-11-16T09:04:47.773Z,25.57
2022-11-16T09:05:49.431Z,25.15
2022-11-16T09:06:53.043Z,24.87
2022-11-16T09:07:54.785Z,24.64
2022-11-16T09:08:57.190Z,24.52
2022-11-16T09:09:58.830Z,24.55
2022-11-16T09:11:04.899Z,24.82
2022-11-16T09:12:06.935Z,24.88
2022-11-16T09:13:08.589Z,24.72
2022-11-16T09:14:10.296Z,24.86
2022-11-16T09:15:11.932Z,24.84
2022-11-16T09:16:16.869Z,24.97
2022-11-16T09:17:22.919Z,24.85
2022-11-16T09:18:25.396Z,24.88
2022-11-16T09:19:27.158Z,25.07
2022-11-16T09:20:29.428Z,24.87
2022-11-16T09:21:31.129Z,24.84
2022-11-16T09:22:32.866Z,24.97
2022-11-16T09:23:34.649Z,24.87
2022-11-16T09:24:36.332Z,24.73
2022-11-16T09:25:38.028Z,24.49
2022-11-16T09:26:39.684Z,24.66
2022-11-16T09:27:41.371Z,24.81
2022-11-16T09:28:43.045Z,24.65
2022-11-16T09:29:44.716Z,24.62
2022-11-16T09:30:49.654Z,24.67
2022-11-16T09:31:51.310Z,24.62
2022-11-16T09:32:53.030Z,24.21
2022-11-16T09:33:58.492Z,23.40
2022-11-16T09:35:00.248Z,23.12
2022-11-16T09:36:07.290Z,23.17
2022-11-16T09:37:08.988Z,23.12
2022-11-16T09:38:13.610Z,23.61
2022-11-16T09:39:33.254Z,24.00
2022-11-16T09:40:38.213Z,24.29
2022-11-16T09:42:02.526Z,24.50
2022-11-16T09:43:26.467Z,24.77
2022-11-16T09:44:39.472Z,24.92
2022-11-16T09:45:58.380Z,25.11
2022-11-16T09:47:01.921Z,25.25
2022-11-16T09:48:06.731Z,25.46
2022-11-16T09:49:40.821Z,25.64
2022-11-16T09:50:51.379Z,25.72
2022-11-16T09:51:59.592Z,25.84
2022-11-16T09:53:16.506Z,25.85
2022-11-16T09:54:23.170Z,25.88
2022-11-16T09:55:42.530Z,25.95
2022-11-16T09:56:47.561Z,26.01
2022-11-16T09:57:52.610Z,25.91
2022-11-16T09:58:54.190Z,26.00
2022-11-16T10:00:02.192Z,26.28
2022-11-16T10:01:14.349Z,26.43
2022-11-16T10:02:23.969Z,26.49
2022-11-16T10:03:27.762Z,26.42
2022-11-16T10:05:07.878Z,26.37
2022-11-16T10:06:21.464Z,26.24
2022-11-16T10:07:41.858Z,25.93
2022-11-16T10:08:45.682Z,25.87
2022-11-16T10:09:47.979Z,25.90
2022-11-16T10:11:23.332Z,25.47
2022-11-16T10:12:38.094Z,24.77
2022-11-16T10:13:50.473Z,24.25
2022-11-16T10:15:23.676Z,24.23
2022-11-16T10:17:01.229Z,24.63
2022-11-16T10:18:40.416Z,24.38
2022-11-16T10:20:20.423Z,24.17
2022-11-16T10:21:25.848Z,23.68
2022-11-16T10:22:30.417Z,23.64
2022-11-16T10:23:37.940Z,23.89
2022-11-16T10:24:57.931Z,24.23
2022-11-16T10:26:11.601Z,24.21
2022-11-16T10:27:39.455Z,24.14
2022-11-16T10:28:43.992Z,24.07
2022-11-16T10:29:57.347Z,24.02
2022-11-16T10:31:40.191Z,23.64
2022-11-16T10:32:53.071Z,23.62
2022-11-16T10:33:58.764Z,23.87
2022-11-16T10:35:16.063Z,24.12
2022-11-16T10:36:19.396Z,24.28
2022-11-16T10:37:23.939Z,24.48
2022-11-16T10:38:30.438Z,24.68
2022-11-16T10:39:34.167Z,24.80
2022-11-16T10:40:37.758Z,24.80
2022-11-16T10:41:50.561Z,24.83
2022-11-16T10:43:00.452Z,24.70
2022-11-16T10:44:02.762Z,24.71
2022-11-16T10:45:12.006Z,24.82
2022-11-16T10:46:31.716Z,24.81
2022-11-16T10:47:42.804Z,24.66
2022-11-16T10:49:02.537Z,24.57
2022-11-16T10:50:47.560Z,24.55
2022-11-16T10:51:49.261Z,24.36
2022-11-16T10:52:50.913Z,24.25
2022-11-16T10:53:53.979Z,23.84
2022-11-16T10:54:55.696Z,23.37
2022-11-16T10:56:03.291Z,23.17
2022-11-16T10:57:14.055Z,23.32
2022-11-16T10:58:15.792Z,23.36
2022-11-16T10:59:20.582Z,23.31
2022-11-16T11:00:49.297Z,23.10
2022-11-16T11:01:56.262Z,22.92
2022-11-16T11:02:57.920Z,22.79
2022-11-16T11:04:21.336Z,22.75
2022-11-16T11:05:23.092Z,22.74
2022-11-16T11:06:26.659Z,22.70
2022-11-16T11:07:34.401Z,22.63
2022-11-16T11:08:36.118Z,22.39
2022-11-16T11:09:38.752Z,22.34
2022-11-16T11:10:42.183Z,22.05
2022-11-16T11:12:24.046Z,21.55
2022-11-16T11:13:26.931Z,21.45
2022-11-16T11:14:28.631Z,21.31
2022-11-16T11:15:30.328Z,21.07
2022-11-16T11:16:32.177Z,20.95
2022-11-16T11:17:36.121Z,20.66
2022-11-16T11:18:37.879Z,20.45
2022-11-16T11:19:39.551Z,20.42
2022-11-16T11:20:45.099Z,20.25
2022-11-16T11:21:47.584Z,20.08
2022-11-16T11:22:59.163Z,20.02
2022-11-16T11:24:37.431Z,19.85
2022-11-16T11:25:27.990Z,19.65
2022-11-16T11:26:37.204Z,19.25
2022-11-16T11:27:39.733Z,19.16
2022-11-16T11:28:48.073Z,18.98
2022-11-16T11:29:55.510Z,18.93
2022-11-16T11:31:11.688Z,18.68
2022-11-16T11:32:22.453Z,18.58
2022-11-16T11:33:38.117Z,18.22
2022-11-16T11:34:43.784Z,17.96
2022-11-16T11:35:45.473Z,18.01
2022-11-16T11:36:55.319Z,17.82
2022-11-16T11:38:07.457Z,17.67
2022-11-16T11:39:12.648Z,17.65
2022-11-16T11:40:23.384Z,17.52
2022-11-16T11:41:25.959Z,17.52
2022-11-16T11:42:28.054Z,17.59
2022-11-16T11:43:29.901Z,17.55
2022-11-16T11:44:38.697Z,17.31
2022-11-16T11:45:49.625Z,17.20
2022-11-16T11:49:01.639Z,16.93
2022-11-16T11:50:14.155Z,16.86
2022-11-16T11:51:25.558Z,16.78
2022-11-16T11:52:44.633Z,16.79
2022-11-16T11:53:59.329Z,16.88
2022-11-16T11:55:05.737Z,16.92
2022-11-16T11:56:11.733Z,16.95
2022-11-16T11:57:20.734Z,16.94
2022-11-16T11:58:28.376Z,16.99
2022-11-16T11:59:30.394Z,16.99
2022-11-16T12:00:49.356Z,16.91
2022-11-16T12:02:25.707Z,16.88
2022-11-16T12:03:45.389Z,16.87
2022-11-16T12:05:08.320Z,16.81
2022-11-16T12:06:22.888Z,16.80
2022-11-16T12:07:48.973Z,16.61
2022-11-16T12:09:09.017Z,16.49
2022-11-16T12:10:22.568Z,16.49
2022-11-16T12:11:39.437Z,16.51
2022-11-16T12:13:02.514Z,16.49
2022-11-16T12:14:29.624Z,16.54
2022-11-16T12:15:52.409Z,16.60
2022-11-16T12:17:36.453Z,16.53
2022-11-16T12:19:10.281Z,16.40
2022-11-16T12:20:26.598Z,16.40
2022-11-16T12:21:41.362Z,16.43
2022-11-16T12:23:24.879Z,16.49
2022-11-16T12:24:26.478Z,16.47
2022-11-16T12:25:39.079Z,16.45
2022-11-16T12:26:41.363Z,16.44
2022-11-16T12:28:10.803Z,16.47
2022-11-16T12:29:25.875Z,16.44
2022-11-16T12:30:27.972Z,16.42
2022-11-16T12:31:41.962Z,16.39
2022-11-16T12:32:53.068Z,16.37
2022-11-16T12:34:34.398Z,16.26
2022-11-16T12:35:49.269Z,16.29
2022-11-16T12:37:11.086Z,16.29
2022-11-16T12:38:26.650Z,16.32
2022-11-16T12:39:34.506Z,16.27
2022-11-16T12:40:41.350Z,16.20
2022-11-16T12:42:13.724Z,16.29
2022-11-16T12:43:21.280Z,16.29
2022-11-16T12:44:57.696Z,16.32
2022-11-16T12:46:20.577Z,16.34
2022-11-16T12:47:55.795Z,16.29
2022-11-16T12:49:19.029Z,16.31
2022-11-16T12:50:45.008Z,16.34
2022-11-16T12:52:12.289Z,16.38
2022-11-16T12:53:16.617Z,16.42
2022-11-16T12:54:52.445Z,16.48
2022-11-16T12:56:44.562Z,16.56
2022-11-16T12:58:02.632Z,16.50
2022-11-16T12:59:36.652Z,16.52
2022-11-16T13:01:10.640Z,16.41
2022-11-16T13:02:41.345Z,16.57
2022-11-16T13:03:49.229Z,16.46
2022-11-16T13:05:03.941Z,16.48
2022-11-16T13:06:15.275Z,16.55
2022-11-16T13:07:30.204Z,16.54
2022-11-16T13:08:41.032Z,16.61
2022-11-16T13:10:00.689Z,16.62
2022-11-16T13:11:17.442Z,16.70
2022-11-16T13:12:23.609Z,16.71
2022-11-16T13:13:38.351Z,16.79
2022-11-16T13:14:45.419Z,16.81
2022-11-16T13:15:48.136Z,16.86
2022-11-16T13:16:51.394Z,16.85
2022-11-16T13:17:59.994Z,16.77
2022-11-16T13:19:05.729Z,16.81
2022-11-16T13:20:35.300Z,16.87
2022-11-16T13:21:59.982Z,16.89
2022-11-16T13:23:26.020Z,16.89
2022-11-16T13:24:51.757Z,16.80
2022-11-16T13:26:01.754Z,16.83
2022-11-16T13:27:06.240Z,16.84
2022-11-16T13:28:10.751Z,16.87
2022-11-16T13:29:22.580Z,16.92
2022-11-16T13:30:57.663Z,17.00
2022-11-16T13:32:07.574Z,17.06
2022-11-16T13:33:28.887Z,17.06
2022-11-16T13:34:35.934Z,17.09
2022-11-16T13:35:38.770Z,17.10
2022-11-16T13:36:45.476Z,17.16
2022-11-16T13:37:48.988Z,17.23
2022-11-16T13:38:54.189Z,17.24
2022-11-16T13:39:58.861Z,17.27
2022-11-16T13:41:31.401Z,17.26
2022-11-16T13:42:43.895Z,17.26
2022-11-16T13:43:49.863Z,17.25
2022-11-16T13:44:52.328Z,17.28
2022-11-16T13:46:01.054Z,17.27
2022-11-16T13:47:05.766Z,17.31
2022-11-16T13:48:20.368Z,17.31
2022-11-16T13:49:24.737Z,17.26
2022-11-16T13:50:37.683Z,17.22
2022-11-16T13:51:39.690Z,17.16
2022-11-16T13:55:42.945Z,17.27
2022-11-16T13:56:50.247Z,17.30
2022-11-16T13:57:54.739Z,17.28
2022-11-16T13:58:57.764Z,17.26
2022-11-16T14:00:02.165Z,17.15
2022-11-16T14:01:10.924Z,17.17
2022-11-16T14:02:32.916Z,17.24
2022-11-16T14:03:41.847Z,17.15
2022-11-16T14:05:00.529Z,17.16
2022-11-16T14:06:02.190Z,17.24
2022-11-16T14:07:03.934Z,17.12
2022-11-16T14:08:37.312Z,17.17
2022-11-16T14:09:47.632Z,17.18
2022-11-16T14:10:50.113Z,17.13
2022-11-16T14:11:51.770Z,17.05
2022-11-16T14:12:54.760Z,17.05
2022-11-16T14:13:57.438Z,16.97
2022-11-16T14:15:28.631Z,17.02
2022-11-16T14:16:30.881Z,17.01
2022-11-16T14:18:12.045Z,17.00
2022-11-16T14:19:44.969Z,17.04
2022-11-16T14:20:57.191Z,16.99
2022-11-16T14:22:12.671Z,16.98
2022-11-16T14:23:32.166Z,16.95
2022-11-16T14:24:47.222Z,17.04
2022-11-16T14:26:06.950Z,17.05
2022-11-16T14:27:36.667Z,17.00
2022-11-16T14:28:54.360Z,16.94
2022-11-16T14:30:14.390Z,16.93
2022-11-16T14:31:26.708Z,16.87
2022-11-16T14:32:39.771Z,16.82
2022-11-16T14:33:50.071Z,16.79
2022-11-16T14:34:55.280Z,16.81
2022-11-16T14:35:57.267Z,16.82
2022-11-16T14:36:59.771Z,16.84
2022-11-16T14:38:06.560Z,16.75
2022-11-16T14:39:29.544Z,16.81
2022-11-16T14:40:52.575Z,16.82
2022-11-16T14:42:03.334Z,16.84
2022-11-16T14:43:16.863Z,16.85
2022-11-16T14:44:26.435Z,16.75
2022-11-16T14:45:31.341Z,16.64
2022-11-16T14:46:36.324Z,16.57
2022-11-16T14:47:39.292Z,16.55
2022-11-16T14:48:45.885Z,16.58
2022-11-16T14:49:48.435Z,16.58